Time;durP1;ratioP1;P1;durP2;ratioP2;P2;SDS_P1;SDS_P2;PMS_P1;PMS_P2;Temp;Humidity;BMP_temperature;BMP_pressure;BME280_temperature;BME280_humidity;BME280_pressure;Samples;Min_cycle;Max_cycle;Signal;HPM_P1;HPM_P2
2023/08/31 00:01:11;;;;;;;2.70;1.02;;;;;;;23.73;50.92;99410.16;5095663;28;20114;-70
2023/08/31 00:03:36;;;;;;;4.13;1.33;;;;;;;23.73;50.80;99415.50;5107781;28;20400;-66
2023/08/31 00:06:07;;;;;;;3.83;1.35;;;;;;;23.73;50.77;99415.50;5094274;28;20024;-70
2023/08/31 00:08:34;;;;;;;3.28;1.10;;;;;;;23.73;50.76;99416.31;5105889;28;20609;-68
2023/08/31 00:11:00;;;;;;;3.28;1.30;;;;;;;23.74;50.88;99411.84;5110925;28;20100;-69
2023/08/31 00:13:27;;;;;;;3.03;1.23;;;;;;;23.73;51.12;99416.31;5097168;28;20400;-70
2023/08/31 00:15:59;;;;;;;3.53;1.23;;;;;;;23.73;50.87;99419.00;5093533;28;20020;-71
2023/08/31 00:18:52;;;;;;;5.93;1.48;;;;;;;23.72;50.76;99419.97;5105165;28;20106;-72
2023/08/31 00:21:25;;;;;;;4.35;1.60;;;;;;;23.73;50.93;99416.31;5088344;28;20027;-71
2023/08/31 00:23:50;;;;;;;2.60;1.00;;;;;;;23.73;50.89;99426.16;5092395;28;20066;-70
2023/08/31 00:26:16;;;;;;;4.00;1.08;;;;;;;23.74;50.81;99425.19;5091570;28;20107;-70
2023/08/31 00:28:42;;;;;;;2.95;1.20;;;;;;;23.74;50.86;99422.50;5092311;28;20023;-71
2023/08/31 00:31:08;;;;;;;3.28;1.10;;;;;;;23.73;50.92;99426.16;5091581;28;20032;-69
2023/08/31 00:33:40;;;;;;;3.42;1.17;;;;;;;23.73;50.69;99415.50;5099182;28;20062;-71
2023/08/31 00:36:06;;;;;;;3.25;1.00;;;;;;;23.73;50.79;99418.16;5102821;28;20020;-70
2023/08/31 00:38:31;;;;;;;2.50;1.00;;;;;;;23.71;50.77;99417.41;5105986;28;20031;-70
2023/08/31 00:40:57;;;;;;;3.72;1.02;;;;;;;23.71;50.59;99417.41;5112670;28;20538;-70
2023/08/31 00:43:22;;;;;;;3.25;1.02;;;;;;;23.73;50.82;99420.81;5096632;28;20022;-69
2023/08/31 00:45:50;;;;;;;2.90;1.10;;;;;;;23.72;50.56;99419.09;5104861;28;20431;-70
2023/08/31 00:48:17;;;;;;;3.15;1.13;;;;;;;23.72;50.70;99419.09;5105485;28;20027;-68
2023/08/31 00:50:44;;;;;;;2.90;1.08;;;;;;;23.72;50.74;99419.09;5097641;28;20024;-70
2023/08/31 00:53:10;;;;;;;3.17;1.30;;;;;;;23.72;50.75;99411.97;5109937;28;20024;-71
2023/08/31 00:55:36;;;;;;;3.70;1.25;;;;;;;23.70;50.72;99415.69;5099708;28;20091;-71
2023/08/31 00:58:01;;;;;;;4.72;1.30;;;;;;;23.70;50.56;99407.72;5103266;28;20095;-71
2023/08/31 01:00:44;;;;;;;2.80;1.00;;;;;;;23.70;50.71;99410.38;5102137;28;20553;-70
2023/08/31 01:03:17;;;;;;;3.10;1.10;;;;;;;23.69;50.92;99411.34;5109564;28;20020;-70
2023/08/31 01:06:09;;;;;;;3.35;1.13;;;;;;;23.69;50.64;99411.34;5100427;28;20162;-71
2023/08/31 01:08:56;;;;;;;2.67;1.20;;;;;;;23.68;50.65;99406.97;5035467;28;20144;-69
2023/08/31 01:11:27;;;;;;;3.00;1.20;;;;;;;23.69;50.73;99414.00;5019610;28;20381;-70
2023/08/31 01:14:03;;;;;;;2.90;1.02;;;;;;;23.67;50.57;99402.63;5041336;28;20049;-68
2023/08/31 01:16:32;;;;;;;2.35;1.10;;;;;;;23.68;50.56;99407.81;5043588;28;20041;-71
2023/08/31 01:19:01;;;;;;;4.72;1.63;;;;;;;23.69;50.63;99409.50;5033180;28;20420;-71
2023/08/31 01:21:37;;;;;;;3.60;1.10;;;;;;;23.69;50.66;99409.50;5049892;28;20095;-71
2023/08/31 01:24:03;;;;;;;;;;;;;;;23.69;50.53;99414.00;5039387;28;20069;-70
2023/08/31 01:26:29;;;;;;;;;;;;;;;23.70;50.54;99405.03;5031164;28;20439;-70
2023/08/31 01:28:55;;;;;;;2.87;1.03;;;;;;;23.69;50.59;99403.34;5030480;28;19913;-70
2023/08/31 01:31:21;;;;;;;2.95;1.10;;;;;;;23.65;50.63;99402.72;5013449;28;20029;-70
2023/08/31 01:33:47;;;;;;;2.72;1.40;;;;;;;23.69;50.48;99408.69;5030730;28;20079;-69
2023/08/31 01:36:30;;;;;;;3.30;1.23;;;;;;;23.67;50.46;99406.13;5030395;28;20073;-70
2023/08/31 01:39:02;;;;;;;4.65;1.27;;;;;;;23.67;50.58;99406.13;5030225;28;20038;-71
2023/08/31 01:41:31;;;;;;;4.82;1.27;;;;;;;23.66;50.48;99404.44;5030463;28;20037;-70
2023/08/31 01:43:58;;;;;;;3.35;1.27;;;;;;;23.66;50.47;99403.56;5029593;28;20498;-70
2023/08/31 01:46:24;;;;;;;3.50;1.10;;;;;;;23.65;50.80;99409.84;5086244;28;20047;-69
2023/08/31 01:48:49;;;;;;;3.42;1.33;;;;;;;23.65;50.48;99404.53;5092755;28;20027;-71
2023/08/31 01:51:17;;;;;;;5.65;1.40;;;;;;;23.65;50.46;99407.19;5092604;28;20028;-70
2023/08/31 01:53:44;;;;;;;2.88;1.40;;;;;;;23.64;50.63;99401.03;5092538;28;20028;-71
2023/08/31 01:56:10;;;;;;;2.58;1.10;;;;;;;23.64;50.34;99410.81;5092742;28;20069;-70
2023/08/31 01:58:35;;;;;;;3.60;1.20;;;;;;;23.64;50.49;99410.81;5092194;28;20107;-71
2023/08/31 02:01:00;;;;;;;4.20;1.00;;;;;;;23.63;50.70;99409.13;5092336;28;20046;-70
2023/08/31 02:03:26;;;;;;;3.25;1.10;;;;;;;23.63;50.64;99406.47;5092600;28;20024;-70
2023/08/31 02:05:51;;;;;;;3.38;1.20;;;;;;;23.64;50.60;99410.81;5092596;28;20467;-70
2023/08/31 02:08:17;;;;;;;2.95;1.00;;;;;;;23.63;50.75;99419.78;5092824;28;20035;-71
2023/08/31 02:10:44;;;;;;;3.83;1.67;;;;;;;23.62;50.62;99413.59;5092811;28;20028;-69
2023/08/31 02:13:09;;;;;;;2.95;1.08;;;;;;;23.63;50.69;99417.13;5092206;28;20042;-69
2023/08/31 02:15:38;;;;;;;3.55;1.27;;;;;;;23.62;50.54;99412.75;5091017;28;20472;-70
2023/08/31 02:18:04;;;;;;;5.00;1.40;;;;;;;23.62;50.58;99412.75;5092419;28;20024;-71
2023/08/31 02:20:30;;;;;;;4.13;1.30;;;;;;;23.60;50.61;99416.38;5092364;28;20030;-69
2023/08/31 02:22:56;;;;;;;3.05;1.27;;;;;;;23.59;50.38;99412.00;5092308;28;20020;-71
2023/08/31 02:25:21;;;;;;;3.13;1.17;;;;;;;23.62;50.38;99418.09;5091838;28;20024;-70
2023/08/31 02:27:47;;;;;;;2.95;1.23;;;;;;;23.60;50.61;99419.03;5091882;28;20059;-70
2023/08/31 02:30:12;;;;;;;3.20;1.33;;;;;;;23.60;50.40;99410.19;5092114;28;20024;-70
2023/08/31 02:32:38;;;;;;;2.45;1.10;;;;;;;23.60;50.57;99403.03;5092106;28;20020;-71
2023/08/31 02:35:04;;;;;;;2.63;1.48;;;;;;;23.59;50.76;99412.00;5092121;28;20103;-69
2023/08/31 02:37:29;;;;;;;2.85;1.20;;;;;;;23.59;50.63;99414.66;5092124;28;20019;-70
2023/08/31 02:39:55;;;;;;;3.63;1.23;;;;;;;23.60;50.43;99420.84;5092149;28;20024;-70
2023/08/31 02:42:20;;;;;;;4.18;1.50;;;;;;;23.60;50.50;99421.69;5090460;28;20100;-69
2023/08/31 02:44:45;;;;;;;3.63;1.30;;;;;;;23.58;50.47;99418.28;5095463;28;20157;-70
2023/08/31 02:47:11;;;;;;;3.28;1.10;;;;;;;23.58;50.39;99426.28;5094918;28;20030;-68
2023/08/31 02:49:36;;;;;;;3.35;1.23;;;;;;;23.58;50.48;99420.13;5096261;28;20020;-70
2023/08/31 02:52:02;;;;;;;4.97;1.48;;;;;;;23.58;50.34;99418.28;5096358;28;20108;-70
2023/08/31 02:54:27;;;;;;;2.30;1.05;;;;;;;23.56;50.61;99411.38;5096246;28;20027;-70
2023/08/31 02:56:53;;;;;;;4.90;1.50;;;;;;;23.57;50.37;99416.59;5095807;28;20027;-70
2023/08/31 02:59:18;;;;;;;3.35;0.90;;;;;;;23.57;50.50;99419.25;5095826;28;20040;-68
2023/08/31 03:01:46;;;;;;;2.70;1.10;;;;;;;23.55;50.71;99412.34;5095833;28;20044;-70
2023/08/31 03:04:12;;;;;;;3.38;1.67;;;;;;;23.56;50.52;99403.38;5095925;28;20502;-71
2023/08/31 03:06:37;;;;;;;4.25;1.20;;;;;;;23.55;50.60;99410.53;5082301;28;20028;-69
2023/08/31 03:09:03;;;;;;;4.75;1.23;;;;;;;23.55;50.42;99413.22;5075616;28;20032;-70
2023/08/31 03:11:30;;;;;;;2.42;1.13;;;;;;;23.53;50.42;99412.44;5075227;28;20025;-68
2023/08/31 03:13:56;;;;;;;4.07;1.52;;;;;;;23.53;50.40;99408.97;5081556;28;20028;-70
2023/08/31 03:16:21;;;;;;;4.28;1.50;;;;;;;23.50;50.53;99415.34;5095224;28;20038;-70
2023/08/31 03:18:46;;;;;;;4.55;1.33;;;;;;;23.52;50.60;99416.09;5095750;28;20056;-70
2023/08/31 03:21:12;;;;;;;3.65;1.55;;;;;;;23.51;50.44;99414.38;5095356;28;20031;-70
2023/08/31 03:23:37;;;;;;;3.28;1.33;;;;;;;23.51;50.64;99413.53;5095678;28;20024;-70
2023/08/31 03:26:09;;;;;;;2.70;1.30;;;;;;;23.50;50.70;99415.34;5095080;28;20035;-70
2023/08/31 03:28:35;;;;;;;4.65;1.33;;;;;;;23.49;50.56;99413.66;5095408;28;20024;-68
2023/08/31 03:31:01;;;;;;;2.70;1.23;;;;;;;23.49;50.66;99421.66;5095355;28;20073;-70
2023/08/31 03:33:28;;;;;;;3.70;1.25;;;;;;;23.50;50.37;99412.69;5095177;28;20027;-68
2023/08/31 03:35:54;;;;;;;3.03;1.27;;;;;;;23.50;50.58;99419.81;5095429;28;20081;-69
2023/08/31 03:38:19;;;;;;;2.55;1.15;;;;;;;23.49;50.39;99416.31;5095426;28;20028;-70
2023/08/31 03:40:55;;;;;;;3.58;1.40;;;;;;;23.48;50.46;99417.25;5094941;28;20070;-70
2023/08/31 03:43:20;;;;;;;3.70;1.38;;;;;;;23.50;50.57;99420.69;5094813;28;20020;-70
2023/08/31 03:45:46;;;;;;;3.33;1.55;;;;;;;23.48;50.51;99419.91;5095243;28;20036;-68
2023/08/31 03:48:11;;;;;;;3.70;1.02;;;;;;;23.50;50.61;99431.34;5095398;28;20023;-70
2023/08/31 03:50:37;;;;;;;3.20;1.02;;;;;;;23.49;50.39;99428.78;5094810;28;20057;-70
2023/08/31 03:53:03;;;;;;;4.47;1.48;;;;;;;23.48;50.47;99438.56;5095284;28;20081;-70
2023/08/31 03:55:28;;;;;;;2.67;1.20;;;;;;;23.48;50.54;99427.06;5094705;28;20080;-69
2023/08/31 03:57:54;;;;;;;4.40;1.33;;;;;;;23.48;50.53;99427.91;5093915;28;20066;-67
2023/08/31 04:00:20;;;;;;;2.70;1.25;;;;;;;23.47;50.41;99431.53;5094999;28;20040;-68
2023/08/31 04:02:45;;;;;;;2.63;1.50;;;;;;;23.47;50.54;99423.56;5094679;28;20512;-70
2023/08/31 04:05:11;;;;;;;4.65;1.35;;;;;;;23.45;50.50;99425.47;5094761;28;20143;-70
2023/08/31 04:07:36;;;;;;;3.60;1.65;;;;;;;23.44;50.40;99429.94;5094784;28;20076;-70
2023/08/31 04:10:03;;;;;;;2.70;1.20;;;;;;;23.43;50.48;99430.06;5094397;28;20578;-71
2023/08/31 04:12:30;;;;;;;3.15;1.38;;;;;;;23.44;50.37;99431.78;5094488;28;20047;-70
2023/08/31 04:14:56;;;;;;;4.25;1.50;;;;;;;23.44;50.40;99431.78;5094606;28;20395;-68
2023/08/31 04:17:21;;;;;;;3.28;1.30;;;;;;;23.42;50.63;99431.00;5094626;28;20032;-70
2023/08/31 04:19:46;;;;;;;3.67;1.27;;;;;;;23.42;50.42;99429.22;5094575;28;20039;-69
2023/08/31 04:22:12;;;;;;;2.67;1.13;;;;;;;23.43;50.67;99436.25;5094376;28;20750;-71
2023/08/31 04:24:37;;;;;;;3.08;1.25;;;;;;;23.43;50.51;99446.03;5094107;28;20024;-70
2023/08/31 04:27:03;;;;;;;3.63;1.35;;;;;;;23.45;50.36;99449.44;5094416;28;20028;-71
2023/08/31 04:29:28;;;;;;;3.97;1.65;;;;;;;23.40;50.52;99446.25;5094376;28;20044;-70
2023/08/31 04:31:54;;;;;;;4.22;1.52;;;;;;;23.41;50.50;99454.16;5094424;28;20103;-70
2023/08/31 04:34:19;;;;;;;2.88;1.30;;;;;;;23.42;50.43;99457.66;5094298;28;20519;-68
2023/08/31 04:36:45;;;;;;;3.50;1.33;;;;;;;23.41;50.54;99455.94;5094315;28;20128;-70
2023/08/31 04:39:10;;;;;;;3.67;1.48;;;;;;;23.41;50.49;99453.28;5093794;28;20099;-70
2023/08/31 04:41:36;;;;;;;4.43;1.23;;;;;;;23.39;50.78;99457.88;5093937;28;20091;-70
2023/08/31 04:44:01;;;;;;;3.67;1.50;;;;;;;23.39;50.58;99460.53;5094162;28;20047;-70
2023/08/31 04:46:27;;;;;;;3.53;1.30;;;;;;;23.38;50.30;99465.00;5094043;28;20539;-69
2023/08/31 04:48:52;;;;;;;3.45;1.40;;;;;;;23.39;50.57;99465.88;5093883;28;20384;-71
2023/08/31 04:51:32;;;;;;;3.30;1.50;;;;;;;23.38;50.51;99464.16;5093995;28;20112;-70
2023/08/31 04:53:58;;;;;;;3.88;1.50;;;;;;;23.39;50.51;99476.50;5093708;28;20512;-71
2023/08/31 04:56:23;;;;;;;3.10;1.48;;;;;;;23.39;50.59;99472.03;5093824;28;20509;-70
2023/08/31 04:58:49;;;;;;;4.43;1.38;;;;;;;23.38;50.51;99474.81;5093710;28;20016;-70
2023/08/31 05:01:15;;;;;;;4.50;1.50;;;;;;;23.36;50.68;99471.41;5093409;28;20036;-70
2023/08/31 05:03:41;;;;;;;3.20;1.27;;;;;;;23.36;50.44;99476.72;5093643;28;20031;-70
2023/08/31 05:06:07;;;;;;;4.15;1.40;;;;;;;23.35;50.53;99473.22;5092799;28;20032;-70
2023/08/31 05:08:33;;;;;;;3.45;1.42;;;;;;;23.36;50.63;99482.03;5093534;28;20044;-70
2023/08/31 05:10:59;;;;;;;6.15;1.98;;;;;;;23.35;50.50;99480.34;5093458;28;20571;-69
2023/08/31 05:13:24;;;;;;;4.45;1.67;;;;;;;23.35;50.62;99483.00;5093390;28;20119;-70
2023/08/31 05:15:50;;;;;;;5.22;1.55;;;;;;;23.35;50.72;99486.53;5093518;28;20038;-70
2023/08/31 05:18:15;;;;;;;3.88;1.40;;;;;;;23.35;50.48;99480.34;5093279;28;20047;-70
2023/08/31 05:20:45;;;;;;;3.33;1.40;;;;;;;23.33;50.63;99483.97;5092912;28;20023;-71
2023/08/31 05:23:10;;;;;;;4.68;1.48;;;;;;;23.33;50.62;99483.13;5093384;28;20020;-70
2023/08/31 05:25:35;;;;;;;4.20;1.55;;;;;;;23.32;50.74;99490.28;5093239;28;20031;-70
2023/08/31 05:28:01;;;;;;;4.82;1.70;;;;;;;23.36;50.47;99498.03;5093098;28;20111;-71
2023/08/31 05:30:26;;;;;;;5.72;1.98;;;;;;;23.32;50.54;99503.56;5092858;28;20024;-71
2023/08/31 05:32:52;;;;;;;3.03;1.48;;;;;;;23.31;50.74;99501.88;5093390;28;20024;-70
2023/08/31 05:35:17;;;;;;;4.30;1.70;;;;;;;23.31;50.57;99504.53;5092716;28;20388;-71
2023/08/31 05:37:43;;;;;;;4.50;1.60;;;;;;;23.31;50.71;99507.22;5092908;28;20024;-69
2023/08/31 05:40:10;;;;;;;3.95;1.65;;;;;;;23.28;50.58;99510.03;5093075;28;20480;-69
2023/08/31 05:42:36;;;;;;;3.80;1.55;;;;;;;23.30;50.44;99516.09;5092941;28;20024;-70
2023/08/31 05:45:02;;;;;;;3.50;1.40;;;;;;;23.30;50.64;99505.44;5091520;28;20107;-70
2023/08/31 05:47:27;;;;;;;3.53;1.52;;;;;;;23.29;50.78;99514.41;5092821;28;20024;-67
2023/08/31 05:49:53;;;;;;;2.88;1.30;;;;;;;23.29;50.53;99509.06;5092518;28;20032;-69
2023/08/31 05:52:18;;;;;;;4.20;1.63;;;;;;;23.28;50.46;99515.38;5092725;28;20059;-70
2023/08/31 05:54:44;;;;;;;4.47;1.50;;;;;;;23.30;50.48;99515.25;5091878;28;20027;-70
2023/08/31 05:57:09;;;;;;;3.00;1.40;;;;;;;23.29;50.49;99514.41;5092668;28;20028;-68
2023/08/31 05:59:34;;;;;;;4.25;1.90;;;;;;;23.31;50.68;99512.53;5091575;28;20106;-71
2023/08/31 06:02:00;;;;;;;3.45;1.38;;;;;;;23.29;50.63;99519.72;5092412;28;20044;-69
2023/08/31 06:04:25;;;;;;;4.25;1.73;;;;;;;23.29;50.46;99525.03;5092255;28;20028;-70
2023/08/31 06:06:53;;;;;;;6.40;1.60;;;;;;;23.31;50.35;99522.31;5092763;28;20387;-70
2023/08/31 06:09:20;;;;;;;4.20;1.75;;;;;;;23.30;50.36;99525.91;5091225;28;20024;-69
2023/08/31 06:11:45;;;;;;;4.65;1.70;;;;;;;23.30;50.48;99525.91;5092208;28;20024;-70
2023/08/31 06:14:11;;;;;;;3.42;1.38;;;;;;;23.29;50.53;99524.22;5090947;28;20085;-69
2023/08/31 06:16:36;;;;;;;3.20;1.60;;;;;;;23.30;50.36;99516.09;5092393;28;20028;-69
2023/08/31 06:19:02;;;;;;;4.72;1.65;;;;;;;23.29;50.31;99514.41;5091166;28;20027;-71
2023/08/31 06:21:27;;;;;;;3.40;1.38;;;;;;;23.29;50.49;99519.72;5092382;28;20065;-69
2023/08/31 06:23:52;;;;;;;3.50;1.58;;;;;;;23.29;50.52;99518.88;5092054;28;20039;-69
2023/08/31 06:26:18;;;;;;;4.63;1.80;;;;;;;23.28;50.49;99523.34;5092321;28;20050;-71
2023/08/31 06:28:43;;;;;;;5.47;1.70;;;;;;;23.29;50.43;99521.56;5091910;28;20056;-70
2023/08/31 06:31:08;;;;;;;4.30;1.60;;;;;;;23.30;50.61;99520.59;5092209;28;20527;-71
2023/08/31 06:33:34;;;;;;;4.03;1.50;;;;;;;23.30;50.52;99515.25;5084921;28;20020;-72
2023/08/31 06:35:59;;;;;;;4.90;1.50;;;;;;;23.31;50.35;99517.84;5090252;28;20043;-70
2023/08/31 06:38:25;;;;;;;4.78;1.90;;;;;;;23.31;50.49;99523.19;5090277;28;20527;-71
2023/08/31 06:40:50;;;;;;;4.35;1.65;;;;;;;23.29;50.42;99522.38;5091985;28;20024;-71
2023/08/31 06:43:16;;;;;;;5.50;1.83;;;;;;;23.31;50.49;99527.63;5091372;28;20519;-69
2023/08/31 06:45:41;;;;;;;5.43;1.70;;;;;;;23.30;50.50;99542.72;5091603;28;20028;-71
2023/08/31 06:48:07;;;;;;;4.47;1.90;;;;;;;23.29;50.57;99549.00;5084864;28;20028;-69
2023/08/31 06:50:38;;;;;;;4.43;1.90;;;;;;;23.29;50.45;99550.84;5089328;28;20023;-69
2023/08/31 06:53:03;;;;;;;5.63;2.05;;;;;;;23.27;50.40;99542.94;5096087;28;20024;-69
2023/08/31 06:55:29;;;;;;;4.03;1.70;;;;;;;23.27;50.35;99542.94;5090996;28;20024;-70
2023/08/31 06:57:54;;;;;;;4.68;1.75;;;;;;;23.28;50.42;99547.31;5091807;28;20024;-70
2023/08/31 07:00:19;;;;;;;5.25;1.90;;;;;;;23.26;50.54;99562.53;5091817;28;20456;-71
2023/08/31 07:02:45;;;;;;;3.45;1.60;;;;;;;23.28;50.10;99549.09;5091339;28;20039;-70
2023/08/31 07:05:11;;;;;;;4.75;1.92;;;;;;;23.28;50.31;99552.63;5091935;28;20380;-71
2023/08/31 07:07:36;;;;;;;3.60;1.75;;;;;;;23.29;50.29;99557.00;5091794;28;20051;-69
2023/08/31 07:10:02;;;;;;;5.85;1.90;;;;;;;23.30;50.31;99560.53;5091826;28;20024;-71
2023/08/31 07:12:27;;;;;;;4.78;1.85;;;;;;;23.30;50.29;99555.19;5092008;28;20030;-71
2023/08/31 07:14:53;;;;;;;4.88;1.85;;;;;;;23.29;50.49;99558.81;5090667;28;20468;-69
2023/08/31 07:17:19;;;;;;;4.68;1.70;;;;;;;23.31;50.49;99554.25;5090942;28;20043;-70
2023/08/31 07:19:44;;;;;;;3.15;1.58;;;;;;;23.31;50.31;99554.25;5090528;28;20035;-71
2023/08/31 07:22:10;;;;;;;4.65;1.80;;;;;;;23.30;50.56;99553.38;5090371;28;20024;-71
2023/08/31 07:24:35;;;;;;;6.07;2.20;;;;;;;23.32;50.36;99564.81;5090719;28;20111;-70
2023/08/31 07:27:02;;;;;;;4.90;2.03;;;;;;;23.33;50.69;99563.84;5091498;28;20016;-70
2023/08/31 07:29:28;;;;;;;4.55;2.10;;;;;;;23.33;50.58;99558.53;5092627;28;20066;-70
2023/08/31 07:31:53;;;;;;;4.63;1.83;;;;;;;23.33;50.47;99563.84;5094976;28;20027;-72
2023/08/31 07:34:19;;;;;;;5.40;2.20;;;;;;;23.36;50.65;99568.09;5095207;28;20404;-72
2023/08/31 07:36:44;;;;;;;6.72;2.10;;;;;;;23.38;50.53;99568.00;5095422;28;20023;-70
2023/08/31 07:39:10;;;;;;;6.57;2.15;;;;;;;23.38;50.77;99563.53;5095062;28;20380;-71
2023/08/31 07:41:35;;;;;;;4.50;2.10;;;;;;;23.42;50.44;99572.13;5095406;28;20028;-72
2023/08/31 07:44:02;;;;;;;5.57;1.75;;;;;;;23.42;50.44;99572.13;5095086;28;20020;-71
2023/08/31 07:46:28;;;;;;;5.80;2.20;;;;;;;23.46;50.64;99570.97;5094692;28;20022;-71
2023/08/31 07:48:53;;;;;;;6.82;2.22;;;;;;;23.45;50.64;99567.44;5095339;28;20047;-72
2023/08/31 07:51:23;;;;;;;6.65;2.20;;;;;;;23.45;50.51;99572.78;5095160;28;20403;-71
2023/08/31 07:53:49;;;;;;;5.80;2.17;;;;;;;23.49;50.37;99567.25;5095169;28;20028;-71
2023/08/31 07:56:14;;;;;;;5.40;2.25;;;;;;;23.50;50.38;99574.28;5095007;28;20898;-70
2023/08/31 07:58:39;;;;;;;7.97;2.25;;;;;;;23.51;50.37;99566.19;5094688;28;20027;-71
2023/08/31 08:01:05;;;;;;;6.32;2.38;;;;;;;23.53;50.41;99574.06;5094265;28;20492;-71
2023/08/31 08:03:30;;;;;;;5.28;2.45;;;;;;;23.53;50.34;99563.41;5094590;28;20028;-72
2023/08/31 08:05:56;;;;;;;5.20;2.20;;;;;;;23.52;50.61;99567.88;5094276;28;20028;-72
2023/08/31 08:08:21;;;;;;;5.60;2.22;;;;;;;23.59;50.20;99569.16;5090030;28;20051;-71
2023/08/31 08:10:47;;;;;;;6.28;2.30;;;;;;;23.55;50.52;99567.69;5074330;28;20500;-71
2023/08/31 08:13:12;;;;;;;7.43;2.35;;;;;;;23.56;50.36;99574.72;5074464;28;20020;-70
2023/08/31 08:15:38;;;;;;;5.25;1.75;;;;;;;23.59;50.38;99571.81;5093952;28;20028;-68
2023/08/31 08:18:04;;;;;;;5.63;2.20;;;;;;;23.62;49.79;99572.56;5094551;28;20024;-71
2023/08/31 08:20:29;;;;;;;6.43;2.50;;;;;;;23.63;49.93;99575.09;5093209;28;20031;-71
2023/08/31 08:22:55;;;;;;;9.15;2.60;;;;;;;23.66;49.88;99585.56;5094530;28;20042;-72
2023/08/31 08:25:21;;;;;;;5.38;2.20;;;;;;;23.69;49.70;99588.00;5094277;28;20027;-71
2023/08/31 08:27:48;;;;;;;7.70;2.80;;;;;;;23.72;49.46;99594.91;5093766;28;20024;-70
2023/08/31 08:30:15;;;;;;;7.28;2.47;;;;;;;23.72;49.61;99590.44;5094022;28;20020;-72
2023/08/31 08:32:41;;;;;;;8.25;3.05;;;;;;;23.72;49.87;99585.13;5094399;28;20031;-71
2023/08/31 08:35:06;;;;;;;8.15;2.35;;;;;;;23.72;49.78;99590.44;5092997;28;20020;-70
2023/08/31 08:37:33;;;;;;;9.10;2.85;;;;;;;23.76;49.32;99591.09;5094182;28;20503;-71
2023/08/31 08:39:58;;;;;;;7.03;2.13;;;;;;;23.78;49.43;99591.81;5094344;28;20016;-71
2023/08/31 08:42:25;;;;;;;8.77;2.58;;;;;;;23.80;49.51;99603.25;5093197;28;20027;-71
2023/08/31 08:44:51;;;;;;;9.02;2.42;;;;;;;23.80;49.33;99600.56;5093774;28;20028;-71
2023/08/31 08:47:18;;;;;;;7.07;2.42;;;;;;;23.80;49.47;99599.72;5094156;28;20044;-71
2023/08/31 08:49:44;;;;;;;6.72;2.58;;;;;;;23.80;49.17;99591.72;5093892;28;20081;-71
2023/08/31 08:52:11;;;;;;;9.70;2.67;;;;;;;23.81;49.46;99596.94;5093769;28;20047;-71
2023/08/31 08:54:36;;;;;;;7.60;2.58;;;;;;;23.82;49.26;99590.66;5093986;28;20020;-71
2023/08/31 08:57:03;;;;;;;8.35;2.50;;;;;;;23.83;49.21;99592.34;5093976;28;20038;-71
2023/08/31 08:59:30;;;;;;;6.70;2.45;;;;;;;23.83;49.26;99592.34;5093494;28;20020;-71
2023/08/31 09:01:56;;;;;;;8.80;2.45;;;;;;;23.84;49.08;99587.88;5093471;28;20093;-70
2023/08/31 09:04:21;;;;;;;8.57;2.60;;;;;;;23.83;49.13;99584.34;5093451;28;20036;-71
2023/08/31 09:06:47;;;;;;;5.40;2.20;;;;;;;23.84;49.15;99593.22;5093759;28;20036;-71
2023/08/31 09:09:13;;;;;;;8.13;2.25;;;;;;;23.85;49.40;99590.44;5093730;28;20024;-71
2023/08/31 09:11:38;;;;;;;6.60;2.35;;;;;;;23.87;49.40;99585.84;5093573;28;20067;-71
2023/08/31 09:14:18;;;;;;;12.70;3.17;;;;;;;23.89;49.33;99590.22;5093018;28;20058;-70
2023/08/31 09:16:48;;;;;;;6.95;2.38;;;;;;;23.87;49.59;99593.84;5093514;28;20024;-72
2023/08/31 09:19:24;;;;;;;8.05;2.40;;;;;;;23.89;49.52;99595.53;5091744;28;20434;-71
2023/08/31 09:21:51;;;;;;;7.05;2.70;;;;;;;23.90;49.31;99591.91;5093005;28;20028;-71
2023/08/31 09:24:18;;;;;;;6.05;2.22;;;;;;;23.92;49.47;99590.84;5093295;28;20517;-72
2023/08/31 09:26:52;;;;;;;7.35;2.45;;;;;;;23.90;49.56;99594.56;5093424;28;20028;-71
2023/08/31 09:29:18;;;;;;;6.47;2.03;;;;;;;23.91;49.24;99593.63;5092919;28;20089;-72
2023/08/31 09:31:44;;;;;;;6.50;2.20;;;;;;;23.91;49.41;99586.47;5093027;28;20040;-72
2023/08/31 09:34:10;;;;;;;6.43;2.40;;;;;;;23.91;49.58;99590.97;5093349;28;20071;-71
2023/08/31 09:36:37;;;;;;;6.43;2.13;;;;;;;23.92;49.37;99585.50;5092952;28;20494;-72
2023/08/31 09:39:05;;;;;;;6.15;2.20;;;;;;;23.90;49.28;99589.25;5093146;28;20094;-71
2023/08/31 09:41:30;;;;;;;7.05;2.20;;;;;;;23.91;49.05;99588.31;5080782;28;20555;-71
2023/08/31 09:43:56;;;;;;;7.32;2.35;;;;;;;23.91;49.11;99594.47;5083146;28;20131;-71
2023/08/31 09:46:22;;;;;;;10.50;2.38;;;;;;;23.91;49.25;99594.47;5077969;28;20067;-71
2023/08/31 09:48:48;;;;;;;5.25;2.13;;;;;;;23.92;49.11;99595.34;5087124;28;20021;-71
2023/08/31 09:51:16;;;;;;;6.88;2.20;;;;;;;23.91;49.25;99594.47;5080252;28;20467;-72
2023/08/31 09:53:42;;;;;;;4.72;2.03;;;;;;;23.94;49.11;99593.41;5083736;28;20441;-71
2023/08/31 09:56:13;;;;;;;6.78;2.17;;;;;;;23.94;49.22;99593.41;5097250;28;20059;-72
2023/08/31 09:58:38;;;;;;;4.68;2.00;;;;;;;23.95;49.15;99589.78;5092339;28;20027;-71
2023/08/31 10:01:05;;;;;;;6.07;2.33;;;;;;;23.99;49.25;99586.78;5101568;28;20051;-73
2023/08/31 10:03:31;;;;;;;5.15;1.73;;;;;;;24.02;49.34;99584.88;5083494;28;20373;-73
2023/08/31 10:05:58;;;;;;;6.80;2.10;;;;;;;24.02;49.51;99585.69;5082131;28;20031;-72
2023/08/31 10:08:28;;;;;;;4.47;1.80;;;;;;;24.05;49.23;99582.81;5082095;28;20032;-71
2023/08/31 10:10:54;;;;;;;4.45;1.95;;;;;;;24.05;49.55;99577.50;5087480;28;20119;-71
2023/08/31 10:13:21;;;;;;;7.00;2.42;;;;;;;24.06;49.53;99575.69;5093923;28;20066;-71
2023/08/31 10:15:49;;;;;;;7.38;1.92;;;;;;;24.07;49.53;99575.59;5091627;28;20093;-71
2023/08/31 10:18:15;;;;;;;5.22;1.85;;;;;;;24.07;49.54;99567.59;5095917;28;20031;-72
2023/08/31 10:20:44;;;;;;;7.35;1.90;;;;;;;24.09;49.36;99571.00;5093192;28;20034;-71
2023/08/31 10:23:09;;;;;;;13.73;2.90;;;;;;;24.08;49.57;99569.31;5101137;28;20106;-71
2023/08/31 10:25:50;;;;;;;7.32;1.98;;;;;;;24.08;49.46;99574.66;5105708;28;20165;-71
2023/08/31 10:28:23;;;;;;;6.13;2.17;;;;;;;24.08;49.46;99566.66;5091054;28;20153;-71
2023/08/31 10:31:06;;;;;;;8.38;2.53;;;;;;;24.08;49.24;99566.66;5090439;28;20020;-71
2023/08/31 10:33:45;;;;;;;9.50;2.33;;;;;;;24.09;49.18;99559.50;5080843;28;20028;-70
2023/08/31 10:36:15;;;;;;;5.68;2.13;;;;;;;24.07;49.46;99556.94;5108431;28;20020;-70
2023/08/31 10:38:44;;;;;;;7.03;2.17;;;;;;;24.10;49.43;99561.19;5089592;28;20088;-71
2023/08/31 10:41:09;;;;;;;6.43;2.28;;;;;;;24.10;49.27;99554.06;5095790;28;20012;-70
2023/08/31 10:43:53;;;;;;;6.28;2.10;;;;;;;24.10;49.03;99548.72;5079318;28;20029;-71
2023/08/31 10:46:30;;;;;;;5.10;2.25;;;;;;;24.08;49.51;99533.81;5082068;28;20508;-72
2023/08/31 10:49:00;;;;;;;6.75;2.40;;;;;;;24.11;49.02;99545.09;5080015;28;20477;-71
2023/08/31 10:51:28;;;;;;;7.57;2.42;;;;;;;24.12;49.15;99541.44;5078218;28;20030;-72
2023/08/31 10:54:14;;;;;;;4.10;2.00;;;;;;;24.15;49.23;99539.53;5082672;28;20079;-71
2023/08/31 10:57:00;;;;;;;5.63;2.00;;;;;;;24.15;49.02;99526.22;5081510;28;20024;-72
2023/08/31 10:59:40;;;;;;;5.55;1.90;;;;;;;24.15;49.03;99527.06;5086919;28;20048;-71
2023/08/31 11:02:06;;;;;;;5.32;2.05;;;;;;;24.17;49.27;99524.28;5104736;28;20054;-72
2023/08/31 11:04:53;;;;;;;6.72;2.20;;;;;;;24.15;48.83;99529.72;5099043;28;20034;-70
2023/08/31 11:07:23;;;;;;;6.53;2.50;;;;;;;24.18;48.88;99537.50;5105939;28;20028;-71
2023/08/31 11:09:48;;;;;;;5.38;2.30;;;;;;;24.20;48.91;99529.38;5099074;27;20073;-72
2023/08/31 11:12:14;;;;;;;6.95;2.20;;;;;;;24.19;48.98;99522.34;5110532;28;20016;-71
2023/08/31 11:14:39;;;;;;;5.72;1.85;;;;;;;24.21;49.13;99520.44;5108494;28;20032;-72
2023/08/31 11:17:05;;;;;;;4.40;1.92;;;;;;;24.22;48.80;99528.28;5105211;28;20020;-71
2023/08/31 11:19:32;;;;;;;5.22;1.77;;;;;;;24.25;48.90;99524.56;5109039;28;20015;-72
2023/08/31 11:22:01;;;;;;;6.15;2.15;;;;;;;24.25;48.73;99516.56;5095264;28;20063;-70
2023/08/31 11:24:26;;;;;;;6.25;2.08;;;;;;;24.26;48.76;99518.28;5093651;28;20043;-71
2023/08/31 11:26:53;;;;;;;5.13;1.80;;;;;;;24.26;48.79;99512.94;5097328;28;20027;-71
2023/08/31 11:29:19;;;;;;;4.18;2.13;;;;;;;24.27;48.84;99514.66;5099924;28;20028;-69
2023/08/31 11:31:44;;;;;;;6.28;2.10;;;;;;;24.27;48.67;99514.66;5095037;28;20071;-71
2023/08/31 11:34:17;;;;;;;5.95;2.10;;;;;;;24.28;48.17;99513.66;5095048;28;20024;-69